createdAt,value
2019-04-27T00:00:04.835Z,1005.20
2019-04-27T00:01:10.471Z,1005.17
2019-04-27T00:02:05.928Z,1005.18
2019-04-27T00:03:06.056Z,1005.14
2019-04-27T00:04:04.791Z,1005.23
2019-04-27T00:05:04.774Z,1005.17
2019-04-27T00:06:07.482Z,1005.25
2019-04-27T00:07:04.782Z,1005.27
2019-04-27T00:08:04.809Z,1005.23
2019-04-27T00:09:07.491Z,1005.26
2019-04-27T00:10:04.715Z,1005.25
2019-04-27T00:11:08.521Z,1005.20
2019-04-27T00:12:05.632Z,1005.22
2019-04-27T00:13:05.798Z,1005.21
2019-04-27T00:14:04.677Z,1005.27
2019-04-27T00:15:04.662Z,1005.23
2019-04-27T00:16:09.685Z,1005.20
2019-04-27T00:17:05.671Z,1005.26
2019-04-27T00:18:04.643Z,1005.13
2019-04-27T00:19:04.625Z,1005.23
2019-04-27T00:20:04.625Z,1005.15
2019-04-27T00:21:04.598Z,1005.11
2019-04-27T00:22:04.633Z,1005.06
2019-04-27T00:23:04.593Z,1004.99
2019-04-27T00:24:04.557Z,1005.08
2019-04-27T00:25:04.557Z,1005.12
2019-04-27T00:26:04.544Z,1005.11
2019-04-27T00:27:04.537Z,1005.11
2019-04-27T00:28:05.427Z,1005.15
2019-04-27T00:29:04.538Z,1005.11
2019-04-27T00:30:04.522Z,1005.13
2019-04-27T00:31:04.534Z,1005.06
2019-04-27T00:32:04.502Z,1005.05
2019-04-27T00:33:05.340Z,1005.08
2019-04-27T00:34:04.450Z,1005.06
2019-04-27T00:35:04.446Z,1005.09
2019-04-27T00:36:04.427Z,1005.08
2019-04-27T00:37:04.414Z,1005.07
2019-04-27T00:38:04.436Z,1005.08
2019-04-27T00:39:05.248Z,1005.07
2019-04-27T00:40:04.410Z,1005.08
2019-04-27T00:41:04.400Z,1005.06
2019-04-27T00:42:04.369Z,1005.02
2019-04-27T00:43:04.386Z,1005.01
2019-04-27T00:44:04.346Z,1005.00
2019-04-27T00:45:05.491Z,1004.97
2019-04-27T00:46:04.346Z,1005.07
2019-04-27T00:47:04.348Z,1005.04
2019-04-27T00:48:04.321Z,1005.02
2019-04-27T00:49:04.290Z,1005.01
2019-04-27T00:50:04.294Z,1004.98
2019-04-27T00:51:04.437Z,1005.01
2019-04-27T00:52:04.259Z,1004.93
2019-04-27T00:53:04.253Z,1004.93
2019-04-27T00:54:04.670Z,1004.89
2019-04-27T00:55:04.216Z,1004.90
2019-04-27T00:56:04.210Z,1004.88
2019-04-27T00:57:04.202Z,1004.93
2019-04-27T00:58:04.293Z,1004.90
2019-04-27T00:59:04.187Z,1004.93
2019-04-27T01:00:05.145Z,1004.93
2019-04-27T01:01:04.197Z,1004.84
2019-04-27T01:02:04.143Z,1004.92
2019-04-27T01:03:04.173Z,1004.89
2019-04-27T01:04:04.120Z,1004.88
2019-04-27T01:05:05.844Z,1004.83
2019-04-27T01:06:04.097Z,1004.84
2019-04-27T01:07:04.137Z,1004.86
2019-04-27T01:08:04.086Z,1004.84
2019-04-27T01:09:04.103Z,1004.92
2019-04-27T01:10:05.298Z,1004.95
2019-04-27T01:11:04.050Z,1004.92
2019-04-27T01:12:04.029Z,1005.02
2019-04-27T01:13:04.050Z,1004.94
2019-04-27T01:14:04.052Z,1005.03
2019-04-27T01:15:04.026Z,1005.03
2019-04-27T01:16:03.995Z,1005.07
2019-04-27T01:17:03.992Z,1005.10
2019-04-27T01:18:12.084Z,1005.05
2019-04-27T01:19:04.974Z,1005.10
2019-04-27T01:20:03.954Z,1005.04
2019-04-27T01:21:03.963Z,1005.07
2019-04-27T01:22:03.926Z,1005.10
2019-04-27T01:23:03.908Z,1005.11
2019-04-27T01:24:03.934Z,1005.16
2019-04-27T01:25:03.897Z,1005.20
2019-04-27T01:26:03.880Z,1005.23
2019-04-27T01:27:03.868Z,1005.30
2019-04-27T01:28:03.853Z,1005.34
2019-04-27T01:29:03.888Z,1005.32
2019-04-27T01:30:03.852Z,1005.36
2019-04-27T01:31:03.824Z,1005.38
2019-04-27T01:32:03.812Z,1005.37
2019-04-27T01:33:03.803Z,1005.41
2019-04-27T01:34:03.791Z,1005.41
2019-04-27T01:35:03.825Z,1005.43
2019-04-27T01:36:03.798Z,1005.41
2019-04-27T01:37:03.783Z,1005.44
2019-04-27T01:38:03.800Z,1005.46
2019-04-27T01:39:03.963Z,1005.48
2019-04-27T01:40:03.749Z,1005.49
2019-04-27T01:41:03.716Z,1005.54
2019-04-27T01:42:03.702Z,1005.48
2019-04-27T01:43:03.728Z,1005.52
2019-04-27T01:44:03.703Z,1005.47
2019-04-27T01:45:03.722Z,1005.50
2019-04-27T01:46:03.652Z,1005.53
2019-04-27T01:47:03.647Z,1005.58
2019-04-27T01:48:03.675Z,1005.66
2019-04-27T01:49:03.627Z,1005.58
2019-04-27T01:50:03.628Z,1005.65
2019-04-27T01:51:03.607Z,1005.61
2019-04-27T01:52:03.593Z,1005.61
2019-04-27T01:53:03.609Z,1005.62
2019-04-27T01:54:03.628Z,1005.63
2019-04-27T01:55:03.595Z,1005.57
2019-04-27T01:56:03.537Z,1005.58
2019-04-27T01:57:04.248Z,1005.53
2019-04-27T01:58:03.551Z,1005.48
2019-04-27T01:59:03.526Z,1005.53
2019-04-27T02:00:03.543Z,1005.60
2019-04-27T02:01:03.522Z,1005.60
2019-04-27T02:02:03.471Z,1005.59
2019-04-27T02:03:03.472Z,1005.69
2019-04-27T02:04:03.458Z,1005.72
2019-04-27T02:05:03.447Z,1005.71
2019-04-27T02:06:03.535Z,1005.83
2019-04-27T02:07:03.420Z,1005.84
2019-04-27T02:08:03.421Z,1005.80
2019-04-27T02:09:03.398Z,1005.84
2019-04-27T02:10:03.386Z,1005.86
2019-04-27T02:11:03.398Z,1005.88
2019-04-27T02:12:03.392Z,1005.90
2019-04-27T02:13:03.350Z,1005.99
2019-04-27T02:14:03.371Z,1005.88
2019-04-27T02:15:03.333Z,1005.95
2019-04-27T02:16:03.340Z,1005.95
2019-04-27T02:17:03.333Z,1005.90
2019-04-27T02:18:03.328Z,1005.86
2019-04-27T02:19:03.307Z,1005.79
2019-04-27T02:20:03.297Z,1005.77
2019-04-27T02:21:03.297Z,1005.72
2019-04-27T02:22:03.267Z,1005.62
2019-04-27T02:23:03.234Z,1005.64
2019-04-27T02:24:03.224Z,1005.63
2019-04-27T02:25:03.216Z,1005.63
2019-04-27T02:26:03.222Z,1005.66
2019-04-27T02:27:03.246Z,1005.62
2019-04-27T02:28:03.247Z,1005.59
2019-04-27T02:29:03.184Z,1005.67
2019-04-27T02:30:03.181Z,1005.65
2019-04-27T02:31:03.153Z,1005.70
2019-04-27T02:32:03.220Z,1005.71
2019-04-27T02:33:03.139Z,1005.67
2019-04-27T02:34:03.126Z,1005.65
2019-04-27T02:35:03.115Z,1005.65
2019-04-27T02:36:03.124Z,1005.66
2019-04-27T02:37:03.115Z,1005.63
2019-04-27T02:38:03.077Z,1005.61
2019-04-27T02:39:03.118Z,1005.63
2019-04-27T02:40:03.053Z,1005.59
2019-04-27T02:41:03.054Z,1005.61
2019-04-27T02:42:03.055Z,1005.65
2019-04-27T02:43:03.040Z,1005.70
2019-04-27T02:44:03.011Z,1005.57
2019-04-27T02:45:02.996Z,1005.54
2019-04-27T02:46:02.986Z,1005.49
2019-04-27T02:47:03.010Z,1005.48
2019-04-27T02:48:02.960Z,1005.46
2019-04-27T02:49:06.524Z,1005.49
2019-04-27T02:50:02.954Z,1005.52
2019-04-27T02:51:02.930Z,1005.54
2019-04-27T02:52:02.922Z,1005.55
2019-04-27T02:53:03.337Z,1005.54
2019-04-27T02:54:02.896Z,1005.63
2019-04-27T02:55:02.893Z,1005.63
2019-04-27T02:56:02.901Z,1005.67
2019-04-27T02:57:02.899Z,1005.71
2019-04-27T02:58:02.873Z,1005.71
2019-04-27T02:59:02.860Z,1005.68
2019-04-27T03:00:02.860Z,1005.66
2019-04-27T03:01:02.869Z,1005.67
2019-04-27T03:02:02.799Z,1005.67
2019-04-27T03:03:02.834Z,1005.64
2019-04-27T03:04:02.784Z,1005.67
2019-04-27T03:05:02.767Z,1005.64
2019-04-27T03:06:02.758Z,1005.69
2019-04-27T03:07:02.763Z,1005.66
2019-04-27T03:08:02.795Z,1005.71
2019-04-27T03:09:02.743Z,1005.73
2019-04-27T03:10:02.966Z,1005.83
2019-04-27T03:11:02.698Z,1005.77
2019-04-27T03:12:02.708Z,1005.86
2019-04-27T03:13:02.709Z,1005.85
2019-04-27T03:14:02.709Z,1005.85
2019-04-27T03:15:02.703Z,1005.88
2019-04-27T03:16:02.639Z,1005.93
2019-04-27T03:17:02.629Z,1005.97
2019-04-27T03:18:02.659Z,1005.99
2019-04-27T03:19:14.977Z,1005.97
2019-04-27T03:20:03.594Z,1005.99
2019-04-27T03:21:02.586Z,1005.98
2019-04-27T03:22:02.567Z,1005.94
2019-04-27T03:23:02.563Z,1006.02
2019-04-27T03:24:02.603Z,1005.95
2019-04-27T03:25:02.589Z,1005.98
2019-04-27T03:26:02.541Z,1005.97
2019-04-27T03:27:02.513Z,1005.97
2019-04-27T03:28:02.812Z,1005.97
2019-04-27T03:29:02.511Z,1005.94
2019-04-27T03:30:02.525Z,1005.98
2019-04-27T03:31:03.120Z,1005.95
2019-04-27T03:32:02.466Z,1005.93
2019-04-27T03:33:03.577Z,1005.98
2019-04-27T03:34:05.311Z,1005.98
2019-04-27T03:35:03.559Z,1006.05
2019-04-27T03:36:03.154Z,1006.03
2019-04-27T03:37:02.394Z,1006.06
2019-04-27T03:38:02.380Z,1006.06
2019-04-27T03:39:02.476Z,1006.06
2019-04-27T03:40:02.376Z,1006.10
2019-04-27T03:41:02.380Z,1006.07
2019-04-27T03:42:02.340Z,1006.09
2019-04-27T03:43:02.320Z,1006.05
2019-04-27T03:44:02.315Z,1006.04
2019-04-27T03:45:02.324Z,1006.00
2019-04-27T03:46:02.290Z,1006.02
2019-04-27T03:47:02.300Z,1006.04
2019-04-27T03:48:02.268Z,1006.03
2019-04-27T03:49:02.255Z,1006.04
2019-04-27T03:50:02.285Z,1006.02
2019-04-27T03:51:02.262Z,1005.95
2019-04-27T03:52:02.988Z,1006.01
2019-04-27T03:53:02.217Z,1005.97
2019-04-27T03:54:02.275Z,1005.98
2019-04-27T03:55:02.227Z,1005.96
2019-04-27T03:56:02.213Z,1006.03
2019-04-27T03:57:02.579Z,1006.03
2019-04-27T03:58:02.204Z,1006.06
2019-04-27T03:59:02.148Z,1006.07
2019-04-27T04:00:02.197Z,1006.04
2019-04-27T04:01:02.131Z,1006.02
2019-04-27T04:02:02.567Z,1006.06
2019-04-27T04:03:02.140Z,1006.09
2019-04-27T04:04:02.086Z,1006.07
2019-04-27T04:05:02.118Z,1006.06
2019-04-27T04:06:02.063Z,1006.00
2019-04-27T04:07:02.057Z,1005.91
2019-04-27T04:08:02.080Z,1005.91
2019-04-27T04:09:02.099Z,1005.88
2019-04-27T04:10:02.020Z,1005.87
2019-04-27T04:11:02.023Z,1005.82
2019-04-27T04:12:02.325Z,1005.82
2019-04-27T04:13:02.028Z,1005.85
2019-04-27T04:14:01.979Z,1005.85
2019-04-27T04:15:02.025Z,1005.86
2019-04-27T04:16:01.969Z,1005.80
2019-04-27T04:17:02.976Z,1005.80
2019-04-27T04:18:01.929Z,1005.81
2019-04-27T04:19:01.930Z,1005.84
2019-04-27T04:20:02.078Z,1005.89
2019-04-27T04:21:01.917Z,1005.94
2019-04-27T04:22:02.338Z,1005.98
2019-04-27T04:23:03.264Z,1006.03
2019-04-27T04:24:01.877Z,1006.04
2019-04-27T04:25:01.928Z,1006.07
2019-04-27T04:26:01.876Z,1006.02
2019-04-27T04:27:01.827Z,1006.04
2019-04-27T04:28:01.817Z,1006.06
2019-04-27T04:29:01.854Z,1006.05
2019-04-27T04:30:01.834Z,1006.04
2019-04-27T04:31:01.831Z,1005.99
2019-04-27T04:32:01.825Z,1006.02
2019-04-27T04:33:01.788Z,1005.96
2019-04-27T04:34:01.755Z,1005.99
2019-04-27T04:35:01.810Z,1005.99
2019-04-27T04:36:01.767Z,1005.96
2019-04-27T04:37:01.817Z,1005.94
2019-04-27T04:38:01.721Z,1005.93
2019-04-27T04:39:01.735Z,1005.95
2019-04-27T04:40:01.715Z,1005.96
2019-04-27T04:41:01.677Z,1006.00
2019-04-27T04:42:01.715Z,1005.96
2019-04-27T04:43:03.260Z,1005.98
2019-04-27T04:44:01.631Z,1006.05
2019-04-27T04:45:01.705Z,1006.03
2019-04-27T04:46:01.613Z,1006.00
2019-04-27T04:47:01.660Z,1006.06
2019-04-27T04:48:01.593Z,1006.05
2019-04-27T04:49:01.624Z,1006.10
2019-04-27T04:50:11.088Z,1006.11
2019-04-27T04:51:02.587Z,1006.13
2019-04-27T04:52:01.609Z,1006.13
2019-04-27T04:53:01.559Z,1006.09
2019-04-27T04:54:01.588Z,1006.19
2019-04-27T04:55:02.587Z,1006.10
2019-04-27T04:56:01.522Z,1006.06
2019-04-27T04:57:01.510Z,1006.07
2019-04-27T04:58:01.488Z,1006.07
2019-04-27T04:59:01.461Z,1006.05
2019-04-27T05:00:01.493Z,1006.08
2019-04-27T05:01:02.011Z,1006.13
2019-04-27T05:02:02.470Z,1006.20
2019-04-27T05:03:01.423Z,1006.16
2019-04-27T05:04:01.402Z,1006.14
2019-04-27T05:05:01.407Z,1006.15
2019-04-27T05:06:01.441Z,1006.14
2019-04-27T05:07:01.402Z,1006.20
2019-04-27T05:08:01.359Z,1006.14
2019-04-27T05:09:01.350Z,1006.07
2019-04-27T05:10:01.338Z,1006.16
2019-04-27T05:11:01.320Z,1006.14
2019-04-27T05:12:01.390Z,1006.15
2019-04-27T05:13:01.300Z,1006.13
2019-04-27T05:14:01.540Z,1006.19
2019-04-27T05:15:01.276Z,1006.13
2019-04-27T05:16:01.264Z,1006.18
2019-04-27T05:17:01.288Z,1006.19
2019-04-27T05:18:01.248Z,1006.16
2019-04-27T05:19:01.233Z,1006.22
2019-04-27T05:20:01.267Z,1006.16
2019-04-27T05:21:01.206Z,1006.10
2019-04-27T05:22:01.198Z,1006.14
2019-04-27T05:23:01.340Z,1006.07
2019-04-27T05:24:01.181Z,1006.13
2019-04-27T05:25:01.179Z,1006.14
2019-04-27T05:26:01.148Z,1006.14
2019-04-27T05:27:01.197Z,1006.19
2019-04-27T05:28:01.357Z,1006.19
2019-04-27T05:29:01.259Z,1006.17
2019-04-27T05:30:01.165Z,1006.28
2019-04-27T05:31:01.106Z,1006.24
2019-04-27T05:32:01.109Z,1006.23
2019-04-27T05:33:01.239Z,1006.25
2019-04-27T05:34:01.062Z,1006.19
2019-04-27T05:35:01.108Z,1006.21
2019-04-27T05:36:01.038Z,1006.23
2019-04-27T05:37:01.194Z,1006.29
2019-04-27T05:38:07.252Z,1006.28
2019-04-27T05:39:02.008Z,1006.29
2019-04-27T05:40:01.062Z,1006.29
2019-04-27T05:41:01.108Z,1006.34
2019-04-27T05:42:00.972Z,1006.30
2019-04-27T05:43:01.010Z,1006.34
2019-04-27T05:44:03.317Z,1006.39
2019-04-27T05:45:01.977Z,1006.33
2019-04-27T05:46:01.236Z,1006.34
2019-04-27T05:47:00.916Z,1006.31
2019-04-27T05:48:00.961Z,1006.31
2019-04-27T05:49:06.025Z,1006.27
2019-04-27T05:50:01.878Z,1006.28
2019-04-27T05:51:02.029Z,1006.27
2019-04-27T05:52:00.855Z,1006.25
2019-04-27T05:53:00.875Z,1006.27
2019-04-27T05:54:00.859Z,1006.28
2019-04-27T05:55:00.830Z,1006.29
2019-04-27T05:56:00.835Z,1006.35
2019-04-27T05:57:00.802Z,1006.33
2019-04-27T05:58:00.784Z,1006.39
2019-04-27T05:59:00.791Z,1006.39
2019-04-27T06:00:02.229Z,1006.33
2019-04-27T06:01:00.755Z,1006.40
2019-04-27T06:02:00.759Z,1006.39
2019-04-27T06:03:00.734Z,1006.42
2019-04-27T06:04:00.748Z,1006.41
2019-04-27T06:05:00.703Z,1006.42
2019-04-27T06:06:01.739Z,1006.34
2019-04-27T06:07:01.049Z,1006.35
2019-04-27T06:08:00.678Z,1006.35
2019-04-27T06:09:00.680Z,1006.35
2019-04-27T06:10:00.661Z,1006.39
2019-04-27T06:11:00.675Z,1006.37
2019-04-27T06:12:00.706Z,1006.36
2019-04-27T06:13:00.624Z,1006.40
2019-04-27T06:14:00.620Z,1006.37
2019-04-27T06:15:00.604Z,1006.35
2019-04-27T06:16:00.607Z,1006.39
2019-04-27T06:17:00.565Z,1006.33
2019-04-27T06:18:00.612Z,1006.32
2019-04-27T06:19:00.586Z,1006.35
2019-04-27T06:20:00.580Z,1006.34
2019-04-27T06:21:00.526Z,1006.34
2019-04-27T06:22:01.313Z,1006.29
2019-04-27T06:23:00.499Z,1006.35
2019-04-27T06:24:00.511Z,1006.31
2019-04-27T06:25:00.599Z,1006.33
2019-04-27T06:26:01.804Z,1006.35
2019-04-27T06:27:00.458Z,1006.39
2019-04-27T06:28:00.454Z,1006.36
2019-04-27T06:29:00.520Z,1006.33
2019-04-27T06:30:00.460Z,1006.33
2019-04-27T06:31:00.406Z,1006.34
2019-04-27T06:32:00.463Z,1006.32
2019-04-27T06:33:00.415Z,1006.32
2019-04-27T06:34:00.417Z,1006.35
2019-04-27T06:35:00.398Z,1006.35
2019-04-27T06:36:01.796Z,1006.35
2019-04-27T06:37:00.344Z,1006.34
2019-04-27T06:38:00.340Z,1006.31
2019-04-27T06:39:00.395Z,1006.27
2019-04-27T06:40:00.346Z,1006.27
2019-04-27T06:41:01.408Z,1006.26
2019-04-27T06:42:01.342Z,1006.29
2019-04-27T06:43:00.286Z,1006.28
2019-04-27T06:44:00.257Z,1006.33
2019-04-27T06:45:00.264Z,1006.32
2019-04-27T06:46:00.300Z,1006.36
2019-04-27T06:47:00.234Z,1006.38
2019-04-27T06:48:00.217Z,1006.41
2019-04-27T06:49:00.245Z,1006.45
2019-04-27T06:50:00.218Z,1006.40
2019-04-27T06:51:03.687Z,1006.47
2019-04-27T06:52:01.168Z,1006.43
2019-04-27T06:53:00.159Z,1006.41
2019-04-27T06:54:00.159Z,1006.41
2019-04-27T06:55:00.727Z,1006.48
2019-04-27T06:56:00.267Z,1006.47
2019-04-27T06:57:00.146Z,1006.51
2019-04-27T06:58:00.104Z,1006.53
2019-04-27T06:59:00.086Z,1006.54
2019-04-27T07:00:00.098Z,1006.54
2019-04-27T07:01:00.070Z,1006.56
2019-04-27T07:02:00.930Z,1006.54
2019-04-27T07:03:00.129Z,1006.57
2019-04-27T07:04:00.036Z,1006.52
2019-04-27T07:05:00.047Z,1006.56
2019-04-27T07:06:00.005Z,1006.51
2019-04-27T07:07:01.744Z,1006.55
2019-04-27T07:07:59.987Z,1006.50
2019-04-27T07:08:59.982Z,1006.51
2019-04-27T07:09:59.980Z,1006.55
2019-04-27T07:10:59.988Z,1006.56
2019-04-27T07:11:59.969Z,1006.57
2019-04-27T07:12:59.927Z,1006.64
2019-04-27T07:13:59.920Z,1006.69
2019-04-27T07:14:59.924Z,1006.67
2019-04-27T07:15:59.958Z,1006.72
2019-04-27T07:16:59.968Z,1006.72
2019-04-27T07:17:59.873Z,1006.68
2019-04-27T07:18:59.888Z,1006.67
2019-04-27T07:19:59.889Z,1006.67
2019-04-27T07:20:59.850Z,1006.57
2019-04-27T07:21:59.845Z,1006.55
2019-04-27T07:22:59.808Z,1006.58
2019-04-27T07:23:59.870Z,1006.59
2019-04-27T07:24:59.889Z,1006.57
2019-04-27T07:25:59.967Z,1006.56
2019-04-27T07:26:59.860Z,1006.53
2019-04-27T07:27:59.761Z,1006.54
2019-04-27T07:28:59.967Z,1006.51
2019-04-27T07:30:01.694Z,1006.52
2019-04-27T07:30:59.741Z,1006.59
2019-04-27T07:31:59.855Z,1006.55
2019-04-27T07:33:00.390Z,1006.54
2019-04-27T07:33:59.712Z,1006.57
2019-04-27T07:34:59.754Z,1006.61
2019-04-27T07:35:59.882Z,1006.59
2019-04-27T07:36:59.896Z,1006.53
2019-04-27T07:37:59.637Z,1006.60
2019-04-27T07:39:00.012Z,1006.60
2019-04-27T07:39:59.619Z,1006.56
2019-04-27T07:40:59.679Z,1006.56
2019-04-27T07:41:59.618Z,1006.56
2019-04-27T07:42:59.591Z,1006.56
2019-04-27T07:43:59.643Z,1006.58
2019-04-27T07:44:59.599Z,1006.55
2019-04-27T07:45:59.594Z,1006.55
2019-04-27T07:46:59.640Z,1006.52
2019-04-27T07:47:59.535Z,1006.55
2019-04-27T07:48:59.599Z,1006.52
2019-04-27T07:50:01.381Z,1006.57
2019-04-27T07:50:59.539Z,1006.57
2019-04-27T07:51:59.482Z,1006.56
2019-04-27T07:52:59.468Z,1006.58
2019-04-27T07:53:59.470Z,1006.53
2019-04-27T07:54:59.449Z,1006.54
2019-04-27T07:55:59.462Z,1006.50
2019-04-27T07:56:59.496Z,1006.53
2019-04-27T07:57:59.875Z,1006.45
2019-04-27T07:58:59.627Z,1006.50
2019-04-27T07:59:59.778Z,1006.49
2019-04-27T08:00:59.564Z,1006.54
2019-04-27T08:01:59.612Z,1006.49
2019-04-27T08:02:59.402Z,1006.48
2019-04-27T08:03:59.351Z,1006.55
2019-04-27T08:04:59.682Z,1006.54
2019-04-27T08:05:59.457Z,1006.53
2019-04-27T08:06:59.661Z,1006.56
2019-04-27T08:08:00.212Z,1006.48
2019-04-27T08:08:59.455Z,1006.52
2019-04-27T08:10:01.616Z,1006.49
2019-04-27T08:10:59.572Z,1006.48
2019-04-27T08:11:59.294Z,1006.49
2019-04-27T08:12:59.843Z,1006.51
2019-04-27T08:13:59.235Z,1006.51
2019-04-27T08:15:00.049Z,1006.53
2019-04-27T08:15:59.240Z,1006.47
2019-04-27T08:16:59.222Z,1006.52
2019-04-27T08:17:59.366Z,1006.46
2019-04-27T08:19:00.020Z,1006.48
2019-04-27T08:19:59.622Z,1006.47
2019-04-27T08:20:59.179Z,1006.48
2019-04-27T08:21:59.651Z,1006.48
2019-04-27T08:22:59.797Z,1006.52
2019-04-27T08:23:59.155Z,1006.53
2019-04-27T08:24:59.555Z,1006.49
2019-04-27T08:25:59.111Z,1006.52
2019-04-27T08:26:59.481Z,1006.52
2019-04-27T08:28:00.270Z,1006.49
2019-04-27T08:28:59.081Z,1006.42
2019-04-27T08:29:59.078Z,1006.42
2019-04-27T08:31:00.402Z,1006.46
2019-04-27T08:31:59.045Z,1006.40
2019-04-27T08:32:59.407Z,1006.36
2019-04-27T08:34:00.120Z,1006.33
2019-04-27T08:34:59.468Z,1006.37
2019-04-27T08:35:59.179Z,1006.29
2019-04-27T08:37:00.793Z,1006.35
2019-04-27T08:37:59.480Z,1006.34
2019-04-27T08:38:58.975Z,1006.31
2019-04-27T08:39:59.269Z,1006.28
2019-04-27T08:40:59.318Z,1006.26
2019-04-27T08:41:59.492Z,1006.32
2019-04-27T08:42:59.298Z,1006.30
2019-04-27T08:43:58.931Z,1006.33
2019-04-27T08:44:59.378Z,1006.37
2019-04-27T08:46:00.424Z,1006.38
2019-04-27T08:46:59.611Z,1006.37
2019-04-27T08:47:59.462Z,1006.40
2019-04-27T08:48:58.923Z,1006.43
2019-04-27T08:49:59.206Z,1006.37
2019-04-27T08:50:59.318Z,1006.44
2019-04-27T08:52:01.770Z,1006.43
2019-04-27T08:53:00.675Z,1006.40
2019-04-27T08:53:59.157Z,1006.41
2019-04-27T08:54:59.438Z,1006.37
2019-04-27T08:55:59.246Z,1006.39
2019-04-27T08:56:59.632Z,1006.38
2019-04-27T08:57:58.851Z,1006.38
2019-04-27T08:58:59.515Z,1006.37
2019-04-27T08:59:59.657Z,1006.38
2019-04-27T09:00:59.107Z,1006.32
2019-04-27T09:01:58.874Z,1006.32
2019-04-27T09:02:59.520Z,1006.38
2019-04-27T09:03:59.276Z,1006.39
2019-04-27T09:04:59.666Z,1006.38
2019-04-27T09:05:59.117Z,1006.37
2019-04-27T09:06:59.757Z,1006.46
2019-04-27T09:07:59.722Z,1006.40
2019-04-27T09:08:59.322Z,1006.35
2019-04-27T09:09:59.629Z,1006.34
2019-04-27T09:10:59.049Z,1006.29
2019-04-27T09:11:59.461Z,1006.34
2019-04-27T09:12:58.926Z,1006.30
2019-04-27T09:13:59.006Z,1006.29
2019-04-27T09:14:59.187Z,1006.29
2019-04-27T09:16:00.070Z,1006.28
2019-04-27T09:17:02.271Z,1006.34
2019-04-27T09:17:58.921Z,1006.34
2019-04-27T09:18:59.746Z,1006.33
2019-04-27T09:19:59.148Z,1006.27
2019-04-27T09:20:58.985Z,1006.29
2019-04-27T09:22:10.358Z,1006.33
2019-04-27T09:22:59.450Z,1006.30
2019-04-27T09:23:59.312Z,1006.31
2019-04-27T09:24:59.475Z,1006.21
2019-04-27T09:25:59.497Z,1006.28
2019-04-27T09:26:59.620Z,1006.31
2019-04-27T09:27:59.734Z,1006.31
2019-04-27T09:28:59.578Z,1006.31
2019-04-27T09:29:59.059Z,1006.36
2019-04-27T09:30:58.914Z,1006.31
2019-04-27T09:32:01.521Z,1006.31
2019-04-27T09:32:58.341Z,1006.28
2019-04-27T09:33:58.325Z,1006.26
2019-04-27T09:34:58.315Z,1006.32
2019-04-27T09:35:58.340Z,1006.33
2019-04-27T09:36:58.313Z,1006.33
2019-04-27T09:37:58.295Z,1006.34
2019-04-27T09:38:58.297Z,1006.36
2019-04-27T09:39:58.254Z,1006.32
2019-04-27T09:40:58.311Z,1006.29
2019-04-27T09:41:58.276Z,1006.30
2019-04-27T09:42:58.217Z,1006.31
2019-04-27T09:43:58.323Z,1006.33
2019-04-27T09:44:58.240Z,1006.32
2019-04-27T09:45:58.216Z,1006.34
2019-04-27T09:46:58.187Z,1006.31
2019-04-27T09:47:58.258Z,1006.37
2019-04-27T09:48:58.163Z,1006.33
2019-04-27T09:49:58.166Z,1006.33
2019-04-27T09:50:58.171Z,1006.33
2019-04-27T09:51:58.147Z,1006.32
2019-04-27T09:52:58.134Z,1006.28
2019-04-27T09:53:58.150Z,1006.29
2019-04-27T09:54:58.081Z,1006.31
2019-04-27T09:55:58.082Z,1006.30
2019-04-27T09:56:58.082Z,1006.30
2019-04-27T09:57:58.062Z,1006.30
2019-04-27T09:58:58.113Z,1006.28
2019-04-27T09:59:58.029Z,1006.25
2019-04-27T10:00:58.014Z,1006.28
2019-04-27T10:01:58.039Z,1006.24
2019-04-27T10:02:58.007Z,1006.29
2019-04-27T10:03:57.995Z,1006.28
2019-04-27T10:04:58.006Z,1006.31
2019-04-27T10:05:57.993Z,1006.29
2019-04-27T10:06:57.999Z,1006.30
2019-04-27T10:07:57.933Z,1006.28
2019-04-27T10:08:57.929Z,1006.26
2019-04-27T10:09:57.953Z,1006.26
2019-04-27T10:10:57.968Z,1006.23
2019-04-27T10:11:57.921Z,1006.19
2019-04-27T10:12:57.892Z,1006.19
2019-04-27T10:13:57.886Z,1006.20
2019-04-27T10:14:57.858Z,1006.23
2019-04-27T10:15:57.843Z,1006.24
2019-04-27T10:16:57.833Z,1006.20
2019-04-27T10:17:57.890Z,1006.20
2019-04-27T10:18:57.808Z,1006.18
2019-04-27T10:19:57.842Z,1006.17
2019-04-27T10:21:01.899Z,1006.18
2019-04-27T10:21:57.788Z,1006.23
2019-04-27T10:22:57.896Z,1006.21
2019-04-27T10:23:57.763Z,1006.21
2019-04-27T10:24:57.746Z,1006.20
2019-04-27T10:25:57.858Z,1006.20
2019-04-27T10:26:57.723Z,1006.17
2019-04-27T10:27:57.741Z,1006.13
2019-04-27T10:28:57.702Z,1006.14
2019-04-27T10:29:58.519Z,1006.15
2019-04-27T10:30:57.763Z,1006.13
2019-04-27T10:31:57.673Z,1006.17
2019-04-27T10:32:57.724Z,1006.15
2019-04-27T10:33:57.642Z,1006.14
2019-04-27T10:34:57.632Z,1006.17
2019-04-27T10:35:57.632Z,1006.19
2019-04-27T10:36:57.622Z,1006.14
2019-04-27T10:37:57.692Z,1006.10
2019-04-27T10:38:57.622Z,1006.09
2019-04-27T10:39:57.584Z,1006.11
2019-04-27T10:40:57.604Z,1006.12
2019-04-27T10:41:57.562Z,1006.04
2019-04-27T10:42:57.580Z,1006.06
2019-04-27T10:43:57.618Z,1006.04
2019-04-27T10:44:57.552Z,1006.07
2019-04-27T10:45:57.525Z,1006.11
2019-04-27T10:46:57.554Z,1006.15
2019-04-27T10:47:57.525Z,1006.12
2019-04-27T10:48:57.644Z,1006.18
2019-04-27T10:49:57.463Z,1006.13
2019-04-27T10:50:57.735Z,1006.11
2019-04-27T10:51:57.996Z,1006.17
2019-04-27T10:52:59.350Z,1006.19
2019-04-27T10:53:57.422Z,1006.23
2019-04-27T10:54:57.533Z,1006.24
2019-04-27T10:55:57.392Z,1006.22
2019-04-27T10:56:57.394Z,1006.15
2019-04-27T10:57:57.408Z,1006.15
2019-04-27T10:58:57.362Z,1006.11
2019-04-27T10:59:57.364Z,1006.14
2019-04-27T11:00:58.463Z,1006.10
2019-04-27T11:01:57.351Z,1006.13
2019-04-27T11:02:58.345Z,1006.14
2019-04-27T11:03:57.558Z,1006.13
2019-04-27T11:04:57.304Z,1006.18
2019-04-27T11:05:57.301Z,1006.15
2019-04-27T11:06:57.377Z,1006.05
2019-04-27T11:07:57.325Z,1006.08
2019-04-27T11:08:57.353Z,1006.09
2019-04-27T11:09:57.314Z,1006.11
2019-04-27T11:10:57.689Z,1006.11
2019-04-27T11:11:57.530Z,1006.12
2019-04-27T11:12:57.219Z,1006.17
2019-04-27T11:14:00.748Z,1006.11
2019-04-27T11:14:57.201Z,1006.08
2019-04-27T11:15:57.168Z,1006.06
2019-04-27T11:16:57.161Z,1006.02
2019-04-27T11:17:57.204Z,1005.99
2019-04-27T11:18:58.682Z,1005.99
2019-04-27T11:19:57.146Z,1006.02
2019-04-27T11:20:57.122Z,1006.04
2019-04-27T11:21:57.105Z,1006.01
2019-04-27T11:23:07.252Z,1006.01
2019-04-27T11:23:58.206Z,1006.00
2019-04-27T11:24:57.059Z,1006.01
2019-04-27T11:25:57.065Z,1006.00
2019-04-27T11:26:57.045Z,1005.96
2019-04-27T11:27:57.870Z,1005.96
2019-04-27T11:28:57.019Z,1005.95
2019-04-27T11:29:57.005Z,1006.00
2019-04-27T11:30:57.029Z,1005.95
2019-04-27T11:31:56.990Z,1005.87
2019-04-27T11:32:59.192Z,1005.86
2019-04-27T11:33:57.125Z,1005.90
2019-04-27T11:34:56.949Z,1005.88
2019-04-27T11:35:56.946Z,1005.86
2019-04-27T11:36:57.171Z,1005.86
2019-04-27T11:37:56.950Z,1005.85
2019-04-27T11:38:56.934Z,1005.86
2019-04-27T11:39:56.899Z,1005.83
2019-04-27T11:40:56.887Z,1005.88
2019-04-27T11:41:56.879Z,1005.91
2019-04-27T11:42:57.307Z,1005.90
2019-04-27T11:43:56.997Z,1005.92
2019-04-27T11:44:58.305Z,1005.93
2019-04-27T11:45:56.970Z,1005.87
2019-04-27T11:46:56.987Z,1005.93
2019-04-27T11:47:57.091Z,1005.84
2019-04-27T11:48:58.344Z,1005.87
2019-04-27T11:49:57.980Z,1005.84
2019-04-27T11:50:56.818Z,1005.85
2019-04-27T11:51:56.824Z,1005.86
2019-04-27T11:52:56.806Z,1005.86
2019-04-27T11:53:56.756Z,1005.85
2019-04-27T11:54:56.732Z,1005.76
2019-04-27T11:55:56.731Z,1005.77
2019-04-27T11:56:56.719Z,1005.79
2019-04-27T11:57:56.714Z,1005.80
2019-04-27T11:58:56.686Z,1005.75
2019-04-27T11:59:58.071Z,1005.78
2019-04-27T12:00:56.698Z,1005.75
2019-04-27T12:01:56.677Z,1005.71
2019-04-27T12:02:56.855Z,1005.70
2019-04-27T12:03:56.638Z,1005.69
2019-04-27T12:04:56.618Z,1005.69